sensor_id;sensor_type;location;lat;lon;timestamp;P1;durP1;ratioP1;P2;durP2;ratioP2
16994;SDS011;8614;48.522;9.206;2023-08-30T00:00:45;20.20;;;18.83;;
16994;SDS011;8614;48.522;9.206;2023-08-30T00:03:12;20.40;;;19.10;;
16994;SDS011;8614;48.522;9.206;2023-08-30T00:05:39;19.33;;;18.13;;
16994;SDS011;8614;48.522;9.206;2023-08-30T00:08:06;19.07;;;17.87;;
16994;SDS011;8614;48.522;9.206;2023-08-30T00:10:33;20.80;;;19.30;;
16994;SDS011;8614;48.522;9.206;2023-08-30T00:13:00;20.60;;;19.30;;
16994;SDS011;8614;48.522;9.206;2023-08-30T00:15:29;21.10;;;19.60;;
16994;SDS011;8614;48.522;9.206;2023-08-30T00:17:55;21.13;;;19.53;;
16994;SDS011;8614;48.522;9.206;2023-08-30T00:20:22;21.70;;;20.20;;
16994;SDS011;8614;48.522;9.206;2023-08-30T00:22:49;21.80;;;20.17;;
16994;SDS011;8614;48.522;9.206;2023-08-30T00:25:16;20.17;;;18.77;;
16994;SDS011;8614;48.522;9.206;2023-08-30T00:27:43;20.97;;;19.57;;
16994;SDS011;8614;48.522;9.206;2023-08-30T00:30:10;20.73;;;19.33;;
16994;SDS011;8614;48.522;9.206;2023-08-30T00:32:39;21.40;;;19.80;;
16994;SDS011;8614;48.522;9.206;2023-08-30T00:35:06;20.17;;;18.80;;
16994;SDS011;8614;48.522;9.206;2023-08-30T00:37:34;21.23;;;19.70;;
16994;SDS011;8614;48.522;9.206;2023-08-30T00:40:01;22.33;;;20.80;;
16994;SDS011;8614;48.522;9.206;2023-08-30T00:42:28;22.07;;;20.47;;
16994;SDS011;8614;48.522;9.206;2023-08-30T00:44:55;21.53;;;20.10;;
16994;SDS011;8614;48.522;9.206;2023-08-30T00:47:22;22.50;;;21.00;;
16994;SDS011;8614;48.522;9.206;2023-08-30T00:49:51;21.03;;;19.63;;
16994;SDS011;8614;48.522;9.206;2023-08-30T00:52:18;22.03;;;20.53;;
16994;SDS011;8614;48.522;9.206;2023-08-30T00:54:45;21.70;;;20.20;;
16994;SDS011;8614;48.522;9.206;2023-08-30T00:57:11;20.17;;;18.87;;
16994;SDS011;8614;48.522;9.206;2023-08-30T00:59:38;19.47;;;18.13;;
16994;SDS011;8614;48.522;9.206;2023-08-30T01:02:05;20.73;;;19.33;;
16994;SDS011;8614;48.522;9.206;2023-08-30T01:04:33;20.43;;;19.13;;
16994;SDS011;8614;48.522;9.206;2023-08-30T01:07:01;19.80;;;18.40;;
16994;SDS011;8614;48.522;9.206;2023-08-30T01:09:28;20.30;;;19.00;;
16994;SDS011;8614;48.522;9.206;2023-08-30T01:11:56;19.83;;;18.43;;
16994;SDS011;8614;48.522;9.206;2023-08-30T01:14:28;20.43;;;18.93;;
16994;SDS011;8614;48.522;9.206;2023-08-30T01:17:00;19.70;;;18.30;;
16994;SDS011;8614;48.522;9.206;2023-08-30T01:19:34;19.33;;;18.03;;
16994;SDS011;8614;48.522;9.206;2023-08-30T01:22:12;18.53;;;17.33;;
16994;SDS011;8614;48.522;9.206;2023-08-30T01:24:44;20.93;;;19.27;;
16994;SDS011;8614;48.522;9.206;2023-08-30T01:27:19;20.07;;;18.67;;
16994;SDS011;8614;48.522;9.206;2023-08-30T01:29:48;19.00;;;17.63;;
16994;SDS011;8614;48.522;9.206;2023-08-30T01:32:16;20.33;;;18.93;;
16994;SDS011;8614;48.522;9.206;2023-08-30T01:34:45;20.40;;;19.00;;
16994;SDS011;8614;48.522;9.206;2023-08-30T01:37:14;21.50;;;19.90;;
16994;SDS011;8614;48.522;9.206;2023-08-30T01:39:41;21.20;;;19.73;;
16994;SDS011;8614;48.522;9.206;2023-08-30T01:42:09;21.00;;;19.57;;
16994;SDS011;8614;48.522;9.206;2023-08-30T01:44:37;20.30;;;18.90;;
16994;SDS011;8614;48.522;9.206;2023-08-30T01:47:06;21.30;;;19.90;;
16994;SDS011;8614;48.522;9.206;2023-08-30T01:49:33;20.03;;;18.73;;
16994;SDS011;8614;48.522;9.206;2023-08-30T01:52:03;21.17;;;19.60;;
16994;SDS011;8614;48.522;9.206;2023-08-30T01:54:30;19.93;;;18.63;;
16994;SDS011;8614;48.522;9.206;2023-08-30T01:56:59;20.60;;;19.20;;
16994;SDS011;8614;48.522;9.206;2023-08-30T01:59:25;21.37;;;19.87;;
16994;SDS011;8614;48.522;9.206;2023-08-30T02:01:54;21.20;;;19.70;;
16994;SDS011;8614;48.522;9.206;2023-08-30T02:04:21;21.90;;;20.40;;
16994;SDS011;8614;48.522;9.206;2023-08-30T02:06:50;23.53;;;21.83;;
16994;SDS011;8614;48.522;9.206;2023-08-30T02:09:24;22.60;;;21.00;;
16994;SDS011;8614;48.522;9.206;2023-08-30T02:11:54;21.83;;;20.33;;
16994;SDS011;8614;48.522;9.206;2023-08-30T02:14:23;22.50;;;20.80;;
16994;SDS011;8614;48.522;9.206;2023-08-30T02:16:54;22.30;;;20.70;;
16994;SDS011;8614;48.522;9.206;2023-08-30T02:19:22;21.00;;;19.50;;
16994;SDS011;8614;48.522;9.206;2023-08-30T02:21:49;22.93;;;21.23;;
16994;SDS011;8614;48.522;9.206;2023-08-30T02:24:17;23.63;;;21.93;;
16994;SDS011;8614;48.522;9.206;2023-08-30T02:26:44;23.80;;;22.00;;
16994;SDS011;8614;48.522;9.206;2023-08-30T02:29:12;23.93;;;22.23;;
16994;SDS011;8614;48.522;9.206;2023-08-30T02:31:40;23.27;;;21.57;;
16994;SDS011;8614;48.522;9.206;2023-08-30T02:34:08;21.10;;;19.60;;
16994;SDS011;8614;48.522;9.206;2023-08-30T02:36:36;20.90;;;19.50;;
16994;SDS011;8614;48.522;9.206;2023-08-30T02:39:02;24.03;;;22.27;;
16994;SDS011;8614;48.522;9.206;2023-08-30T02:41:29;22.70;;;21.00;;
16994;SDS011;8614;48.522;9.206;2023-08-30T02:43:56;23.57;;;21.87;;
16994;SDS011;8614;48.522;9.206;2023-08-30T02:46:23;24.47;;;22.73;;
16994;SDS011;8614;48.522;9.206;2023-08-30T02:48:50;24.40;;;22.43;;
16994;SDS011;8614;48.522;9.206;2023-08-30T02:51:18;25.10;;;23.20;;
16994;SDS011;8614;48.522;9.206;2023-08-30T02:53:45;22.90;;;21.27;;
16994;SDS011;8614;48.522;9.206;2023-08-30T02:56:11;22.90;;;21.17;;
16994;SDS011;8614;48.522;9.206;2023-08-30T02:58:38;22.30;;;20.70;;
16994;SDS011;8614;48.522;9.206;2023-08-30T03:01:05;24.97;;;23.17;;
16994;SDS011;8614;48.522;9.206;2023-08-30T03:03:33;23.53;;;21.83;;
16994;SDS011;8614;48.522;9.206;2023-08-30T03:06:00;23.30;;;21.60;;
16994;SDS011;8614;48.522;9.206;2023-08-30T03:08:29;23.70;;;21.90;;
16994;SDS011;8614;48.522;9.206;2023-08-30T03:11:06;24.17;;;22.27;;
16994;SDS011;8614;48.522;9.206;2023-08-30T03:13:34;25.20;;;23.30;;
16994;SDS011;8614;48.522;9.206;2023-08-30T03:16:02;25.77;;;23.70;;
16994;SDS011;8614;48.522;9.206;2023-08-30T03:18:36;23.17;;;21.47;;
16994;SDS011;8614;48.522;9.206;2023-08-30T03:21:03;21.80;;;20.30;;
16994;SDS011;8614;48.522;9.206;2023-08-30T03:23:31;23.47;;;21.83;;
16994;SDS011;8614;48.522;9.206;2023-08-30T03:25:58;22.50;;;20.93;;
16994;SDS011;8614;48.522;9.206;2023-08-30T03:28:26;24.13;;;22.33;;
16994;SDS011;8614;48.522;9.206;2023-08-30T03:30:53;23.40;;;21.70;;
16994;SDS011;8614;48.522;9.206;2023-08-30T03:33:20;24.07;;;22.27;;
16994;SDS011;8614;48.522;9.206;2023-08-30T03:35:47;24.07;;;22.17;;
16994;SDS011;8614;48.522;9.206;2023-08-30T03:38:14;24.43;;;22.67;;
16994;SDS011;8614;48.522;9.206;2023-08-30T03:40:44;24.33;;;22.53;;
16994;SDS011;8614;48.522;9.206;2023-08-30T03:43:11;25.63;;;23.43;;
16994;SDS011;8614;48.522;9.206;2023-08-30T03:45:38;24.10;;;22.40;;
16994;SDS011;8614;48.522;9.206;2023-08-30T03:48:05;26.50;;;24.40;;
16994;SDS011;8614;48.522;9.206;2023-08-30T03:50:32;24.30;;;22.47;;
16994;SDS011;8614;48.522;9.206;2023-08-30T03:52:59;22.40;;;20.80;;
16994;SDS011;8614;48.522;9.206;2023-08-30T03:55:26;25.47;;;23.47;;
16994;SDS011;8614;48.522;9.206;2023-08-30T03:57:54;23.03;;;21.33;;
16994;SDS011;8614;48.522;9.206;2023-08-30T04:00:22;24.00;;;22.20;;
16994;SDS011;8614;48.522;9.206;2023-08-30T04:02:49;23.03;;;21.43;;
16994;SDS011;8614;48.522;9.206;2023-08-30T04:05:16;23.30;;;21.60;;
16994;SDS011;8614;48.522;9.206;2023-08-30T04:07:43;23.10;;;21.50;;
16994;SDS011;8614;48.522;9.206;2023-08-30T04:10:09;21.97;;;20.43;;
16994;SDS011;8614;48.522;9.206;2023-08-30T04:12:36;22.53;;;21.03;;
16994;SDS011;8614;48.522;9.206;2023-08-30T04:15:05;21.80;;;20.30;;
16994;SDS011;8614;48.522;9.206;2023-08-30T04:17:33;20.97;;;19.57;;
16994;SDS011;8614;48.522;9.206;2023-08-30T04:20:00;22.23;;;20.73;;
16994;SDS011;8614;48.522;9.206;2023-08-30T04:22:27;24.30;;;22.50;;
16994;SDS011;8614;48.522;9.206;2023-08-30T04:24:54;23.27;;;21.67;;
16994;SDS011;8614;48.522;9.206;2023-08-30T04:27:21;22.77;;;21.17;;
16994;SDS011;8614;48.522;9.206;2023-08-30T04:29:47;22.47;;;20.97;;
16994;SDS011;8614;48.522;9.206;2023-08-30T04:32:16;22.27;;;20.77;;
16994;SDS011;8614;48.522;9.206;2023-08-30T04:34:42;21.70;;;20.30;;
16994;SDS011;8614;48.522;9.206;2023-08-30T04:37:09;22.10;;;20.60;;
16994;SDS011;8614;48.522;9.206;2023-08-30T04:39:36;24.07;;;22.47;;
16994;SDS011;8614;48.522;9.206;2023-08-30T04:42:03;23.67;;;22.07;;
16994;SDS011;8614;48.522;9.206;2023-08-30T04:44:30;23.17;;;21.60;;
16994;SDS011;8614;48.522;9.206;2023-08-30T04:46:57;23.70;;;22.07;;
16994;SDS011;8614;48.522;9.206;2023-08-30T04:49:25;23.43;;;21.73;;
16994;SDS011;8614;48.522;9.206;2023-08-30T04:51:54;24.97;;;23.17;;
16994;SDS011;8614;48.522;9.206;2023-08-30T04:54:22;23.77;;;22.10;;
16994;SDS011;8614;48.522;9.206;2023-08-30T04:56:48;24.53;;;22.67;;
16994;SDS011;8614;48.522;9.206;2023-08-30T04:59:16;22.80;;;21.20;;
16994;SDS011;8614;48.522;9.206;2023-08-30T05:01:46;22.80;;;21.27;;
16994;SDS011;8614;48.522;9.206;2023-08-30T05:04:13;25.23;;;23.40;;
16994;SDS011;8614;48.522;9.206;2023-08-30T05:06:41;24.60;;;22.70;;
16994;SDS011;8614;48.522;9.206;2023-08-30T05:09:09;22.57;;;20.97;;
16994;SDS011;8614;48.522;9.206;2023-08-30T05:11:35;22.43;;;20.87;;
16994;SDS011;8614;48.522;9.206;2023-08-30T05:14:02;22.23;;;20.77;;
16994;SDS011;8614;48.522;9.206;2023-08-30T05:16:29;21.90;;;20.40;;
16994;SDS011;8614;48.522;9.206;2023-08-30T05:18:56;23.37;;;21.73;;
16994;SDS011;8614;48.522;9.206;2023-08-30T05:21:23;22.73;;;21.13;;
16994;SDS011;8614;48.522;9.206;2023-08-30T05:23:53;23.83;;;22.17;;
16994;SDS011;8614;48.522;9.206;2023-08-30T05:26:20;21.90;;;20.40;;
16994;SDS011;8614;48.522;9.206;2023-08-30T05:28:46;22.47;;;20.97;;
16994;SDS011;8614;48.522;9.206;2023-08-30T05:31:13;23.60;;;21.80;;
16994;SDS011;8614;48.522;9.206;2023-08-30T05:34:02;22.70;;;21.10;;
16994;SDS011;8614;48.522;9.206;2023-08-30T05:36:29;22.50;;;21.00;;
16994;SDS011;8614;48.522;9.206;2023-08-30T05:39:03;23.30;;;21.70;;
16994;SDS011;8614;48.522;9.206;2023-08-30T05:41:36;22.77;;;21.07;;
16994;SDS011;8614;48.522;9.206;2023-08-30T05:44:03;22.43;;;20.93;;
16994;SDS011;8614;48.522;9.206;2023-08-30T05:46:31;21.07;;;19.67;;
16994;SDS011;8614;48.522;9.206;2023-08-30T05:48:57;22.50;;;21.00;;
16994;SDS011;8614;48.522;9.206;2023-08-30T05:51:25;22.87;;;21.27;;
16994;SDS011;8614;48.522;9.206;2023-08-30T05:53:52;22.93;;;21.43;;
16994;SDS011;8614;48.522;9.206;2023-08-30T05:56:20;24.17;;;22.47;;
16994;SDS011;8614;48.522;9.206;2023-08-30T05:58:47;22.80;;;21.30;;
16994;SDS011;8614;48.522;9.206;2023-08-30T06:01:17;22.40;;;20.90;;
16994;SDS011;8614;48.522;9.206;2023-08-30T06:03:44;22.60;;;21.10;;
16994;SDS011;8614;48.522;9.206;2023-08-30T06:06:11;22.53;;;21.03;;
16994;SDS011;8614;48.522;9.206;2023-08-30T06:08:39;22.50;;;21.10;;
16994;SDS011;8614;48.522;9.206;2023-08-30T06:11:05;22.07;;;20.67;;
16994;SDS011;8614;48.522;9.206;2023-08-30T06:13:34;22.80;;;21.23;;
16994;SDS011;8614;48.522;9.206;2023-08-30T06:16:00;21.73;;;20.33;;
16994;SDS011;8614;48.522;9.206;2023-08-30T06:18:29;21.33;;;20.03;;
16994;SDS011;8614;48.522;9.206;2023-08-30T06:20:56;22.10;;;20.60;;
16994;SDS011;8614;48.522;9.206;2023-08-30T06:23:23;20.70;;;19.40;;
16994;SDS011;8614;48.522;9.206;2023-08-30T06:25:53;20.60;;;19.20;;
16994;SDS011;8614;48.522;9.206;2023-08-30T06:28:20;21.10;;;19.70;;
16994;SDS011;8614;48.522;9.206;2023-08-30T06:30:49;20.10;;;18.70;;
16994;SDS011;8614;48.522;9.206;2023-08-30T06:33:16;19.57;;;18.27;;
16994;SDS011;8614;48.522;9.206;2023-08-30T06:35:42;19.20;;;17.90;;
16994;SDS011;8614;48.522;9.206;2023-08-30T06:38:09;20.33;;;18.70;;
16994;SDS011;8614;48.522;9.206;2023-08-30T06:40:36;19.00;;;17.70;;
16994;SDS011;8614;48.522;9.206;2023-08-30T06:43:08;18.93;;;17.63;;
16994;SDS011;8614;48.522;9.206;2023-08-30T06:45:35;18.90;;;17.60;;
16994;SDS011;8614;48.522;9.206;2023-08-30T06:48:05;18.63;;;17.40;;
16994;SDS011;8614;48.522;9.206;2023-08-30T06:50:32;23.73;;;22.33;;
16994;SDS011;8614;48.522;9.206;2023-08-30T06:52:59;19.17;;;17.87;;
16994;SDS011;8614;48.522;9.206;2023-08-30T06:55:26;18.57;;;17.47;;
16994;SDS011;8614;48.522;9.206;2023-08-30T06:57:53;19.77;;;18.20;;
16994;SDS011;8614;48.522;9.206;2023-08-30T07:00:19;19.30;;;18.10;;
16994;SDS011;8614;48.522;9.206;2023-08-30T07:02:46;19.13;;;17.83;;
16994;SDS011;8614;48.522;9.206;2023-08-30T07:05:15;18.17;;;16.80;;
16994;SDS011;8614;48.522;9.206;2023-08-30T07:07:41;17.80;;;16.70;;
16994;SDS011;8614;48.522;9.206;2023-08-30T07:10:09;17.93;;;16.63;;
16994;SDS011;8614;48.522;9.206;2023-08-30T07:12:35;18.17;;;16.87;;
16994;SDS011;8614;48.522;9.206;2023-08-30T07:15:03;17.37;;;16.27;;
16994;SDS011;8614;48.522;9.206;2023-08-30T07:17:30;16.87;;;15.73;;
16994;SDS011;8614;48.522;9.206;2023-08-30T07:19:57;17.00;;;15.80;;
16994;SDS011;8614;48.522;9.206;2023-08-30T07:22:25;16.37;;;15.37;;
16994;SDS011;8614;48.522;9.206;2023-08-30T07:24:52;16.27;;;15.17;;
16994;SDS011;8614;48.522;9.206;2023-08-30T07:27:18;15.13;;;14.17;;
16994;SDS011;8614;48.522;9.206;2023-08-30T07:29:45;16.00;;;14.87;;
16994;SDS011;8614;48.522;9.206;2023-08-30T07:32:12;15.77;;;14.77;;
16994;SDS011;8614;48.522;9.206;2023-08-30T07:34:39;15.63;;;14.63;;
16994;SDS011;8614;48.522;9.206;2023-08-30T07:37:16;7.77;;;6.97;;
16994;SDS011;8614;48.522;9.206;2023-08-30T07:39:46;8.53;;;7.67;;
16994;SDS011;8614;48.522;9.206;2023-08-30T07:42:13;9.33;;;8.53;;
16994;SDS011;8614;48.522;9.206;2023-08-30T07:44:40;7.30;;;6.60;;
16994;SDS011;8614;48.522;9.206;2023-08-30T07:47:07;8.77;;;8.00;;
16994;SDS011;8614;48.522;9.206;2023-08-30T07:49:34;6.67;;;6.07;;
16994;SDS011;8614;48.522;9.206;2023-08-30T07:52:00;7.17;;;6.10;;
16994;SDS011;8614;48.522;9.206;2023-08-30T07:54:27;7.43;;;6.57;;
16994;SDS011;8614;48.522;9.206;2023-08-30T07:56:55;6.80;;;5.87;;
16994;SDS011;8614;48.522;9.206;2023-08-30T07:59:22;6.47;;;5.87;;
16994;SDS011;8614;48.522;9.206;2023-08-30T08:01:49;6.43;;;5.83;;
16994;SDS011;8614;48.522;9.206;2023-08-30T08:04:17;6.17;;;5.67;;
16994;SDS011;8614;48.522;9.206;2023-08-30T08:06:44;6.70;;;6.10;;
16994;SDS011;8614;48.522;9.206;2023-08-30T08:09:11;5.50;;;5.00;;
16994;SDS011;8614;48.522;9.206;2023-08-30T08:11:38;10.63;;;9.83;;
16994;SDS011;8614;48.522;9.206;2023-08-30T08:14:09;7.27;;;6.67;;
16994;SDS011;8614;48.522;9.206;2023-08-30T08:16:36;4.90;;;4.50;;
16994;SDS011;8614;48.522;9.206;2023-08-30T08:19:05;5.30;;;4.80;;
16994;SDS011;8614;48.522;9.206;2023-08-30T08:21:32;5.57;;;5.07;;
16994;SDS011;8614;48.522;9.206;2023-08-30T08:23:59;5.97;;;4.97;;
16994;SDS011;8614;48.522;9.206;2023-08-30T08:26:26;13.23;;;12.40;;
16994;SDS011;8614;48.522;9.206;2023-08-30T08:28:53;5.63;;;5.13;;
16994;SDS011;8614;48.522;9.206;2023-08-30T08:31:21;5.17;;;4.77;;
16994;SDS011;8614;48.522;9.206;2023-08-30T08:33:50;12.70;;;11.80;;
16994;SDS011;8614;48.522;9.206;2023-08-30T08:36:30;11.00;;;10.30;;
16994;SDS011;8614;48.522;9.206;2023-08-30T08:38:57;11.33;;;10.53;;
16994;SDS011;8614;48.522;9.206;2023-08-30T08:41:24;9.53;;;8.87;;
16994;SDS011;8614;48.522;9.206;2023-08-30T08:43:56;4.73;;;4.33;;
16994;SDS011;8614;48.522;9.206;2023-08-30T08:46:27;5.43;;;5.03;;
16994;SDS011;8614;48.522;9.206;2023-08-30T08:48:56;7.27;;;6.70;;
16994;SDS011;8614;48.522;9.206;2023-08-30T08:51:24;7.07;;;6.47;;
16994;SDS011;8614;48.522;9.206;2023-08-30T08:53:52;7.53;;;6.93;;
16994;SDS011;8614;48.522;9.206;2023-08-30T08:56:25;11.50;;;10.70;;
16994;SDS011;8614;48.522;9.206;2023-08-30T08:58:51;7.50;;;7.00;;
16994;SDS011;8614;48.522;9.206;2023-08-30T09:01:18;7.20;;;5.80;;
16994;SDS011;8614;48.522;9.206;2023-08-30T09:03:47;9.37;;;8.57;;
16994;SDS011;8614;48.522;9.206;2023-08-30T09:06:14;7.87;;;7.27;;
16994;SDS011;8614;48.522;9.206;2023-08-30T09:08:41;4.70;;;4.30;;
16994;SDS011;8614;48.522;9.206;2023-08-30T09:11:08;4.63;;;4.23;;
16994;SDS011;8614;48.522;9.206;2023-08-30T09:13:35;4.40;;;4.03;;
16994;SDS011;8614;48.522;9.206;2023-08-30T09:16:02;5.63;;;5.23;;
16994;SDS011;8614;48.522;9.206;2023-08-30T09:18:37;4.97;;;4.47;;
16994;SDS011;8614;48.522;9.206;2023-08-30T09:21:08;4.20;;;3.80;;
16994;SDS011;8614;48.522;9.206;2023-08-30T09:23:36;6.60;;;4.33;;
16994;SDS011;8614;48.522;9.206;2023-08-30T09:26:03;4.60;;;4.20;;
16994;SDS011;8614;48.522;9.206;2023-08-30T09:28:30;10.63;;;10.03;;
16994;SDS011;8614;48.522;9.206;2023-08-30T09:30:58;4.30;;;4.00;;
16994;SDS011;8614;48.522;9.206;2023-08-30T09:33:32;10.70;;;10.00;;
16994;SDS011;8614;48.522;9.206;2023-08-30T09:36:00;10.73;;;10.03;;
16994;SDS011;8614;48.522;9.206;2023-08-30T09:38:29;4.97;;;4.57;;
16994;SDS011;8614;48.522;9.206;2023-08-30T09:41:02;8.60;;;8.00;;
16994;SDS011;8614;48.522;9.206;2023-08-30T09:43:30;6.23;;;5.83;;
16994;SDS011;8614;48.522;9.206;2023-08-30T09:46:02;8.93;;;8.33;;
16994;SDS011;8614;48.522;9.206;2023-08-30T09:48:29;4.50;;;4.10;;
16994;SDS011;8614;48.522;9.206;2023-08-30T09:50:57;9.77;;;9.17;;
16994;SDS011;8614;48.522;9.206;2023-08-30T09:53:25;10.70;;;9.90;;
16994;SDS011;8614;48.522;9.206;2023-08-30T09:55:54;10.87;;;10.17;;
16994;SDS011;8614;48.522;9.206;2023-08-30T09:58:23;6.43;;;6.00;;
16994;SDS011;8614;48.522;9.206;2023-08-30T10:00:52;9.50;;;8.90;;
16994;SDS011;8614;48.522;9.206;2023-08-30T10:03:20;11.10;;;10.30;;
16994;SDS011;8614;48.522;9.206;2023-08-30T10:05:47;11.63;;;10.93;;
16994;SDS011;8614;48.522;9.206;2023-08-30T10:08:14;10.77;;;10.17;;
16994;SDS011;8614;48.522;9.206;2023-08-30T10:10:42;11.63;;;10.90;;
16994;SDS011;8614;48.522;9.206;2023-08-30T10:13:10;10.90;;;10.30;;
16994;SDS011;8614;48.522;9.206;2023-08-30T10:15:45;11.93;;;11.13;;
16994;SDS011;8614;48.522;9.206;2023-08-30T10:18:14;7.90;;;7.40;;
16994;SDS011;8614;48.522;9.206;2023-08-30T10:20:45;5.20;;;4.80;;
16994;SDS011;8614;48.522;9.206;2023-08-30T10:23:12;8.13;;;7.43;;
16994;SDS011;8614;48.522;9.206;2023-08-30T10:25:40;9.27;;;8.67;;
16994;SDS011;8614;48.522;9.206;2023-08-30T10:28:08;8.83;;;8.27;;
16994;SDS011;8614;48.522;9.206;2023-08-30T10:30:37;8.43;;;7.93;;
16994;SDS011;8614;48.522;9.206;2023-08-30T10:33:11;9.87;;;9.27;;
16994;SDS011;8614;48.522;9.206;2023-08-30T10:35:46;7.83;;;7.23;;
16994;SDS011;8614;48.522;9.206;2023-08-30T10:38:23;8.80;;;8.20;;
16994;SDS011;8614;48.522;9.206;2023-08-30T10:40:51;7.67;;;7.10;;
16994;SDS011;8614;48.522;9.206;2023-08-30T10:43:28;10.33;;;9.63;;
16994;SDS011;8614;48.522;9.206;2023-08-30T10:46:00;10.70;;;10.10;;
16994;SDS011;8614;48.522;9.206;2023-08-30T10:48:35;9.23;;;8.73;;
16994;SDS011;8614;48.522;9.206;2023-08-30T10:51:02;8.10;;;7.60;;
16994;SDS011;8614;48.522;9.206;2023-08-30T10:53:30;4.90;;;4.60;;
16994;SDS011;8614;48.522;9.206;2023-08-30T10:56:06;10.13;;;9.53;;
16994;SDS011;8614;48.522;9.206;2023-08-30T10:58:41;10.20;;;9.50;;
16994;SDS011;8614;48.522;9.206;2023-08-30T11:01:10;8.97;;;8.47;;
16994;SDS011;8614;48.522;9.206;2023-08-30T11:03:38;9.73;;;9.13;;
16994;SDS011;8614;48.522;9.206;2023-08-30T11:06:07;10.10;;;9.50;;
16994;SDS011;8614;48.522;9.206;2023-08-30T11:08:39;10.30;;;9.40;;
16994;SDS011;8614;48.522;9.206;2023-08-30T11:11:06;10.30;;;9.70;;
16994;SDS011;8614;48.522;9.206;2023-08-30T11:13:36;9.77;;;9.17;;
16994;SDS011;8614;48.522;9.206;2023-08-30T11:16:04;9.60;;;8.90;;
16994;SDS011;8614;48.522;9.206;2023-08-30T11:18:31;9.43;;;8.87;;
16994;SDS011;8614;48.522;9.206;2023-08-30T11:21:03;10.50;;;9.80;;
16994;SDS011;8614;48.522;9.206;2023-08-30T11:23:30;6.47;;;6.07;;
16994;SDS011;8614;48.522;9.206;2023-08-30T11:25:58;4.87;;;4.50;;
16994;SDS011;8614;48.522;9.206;2023-08-30T11:28:24;10.13;;;9.33;;
16994;SDS011;8614;48.522;9.206;2023-08-30T11:30:53;9.73;;;9.03;;
16994;SDS011;8614;48.522;9.206;2023-08-30T11:33:21;4.80;;;4.47;;
16994;SDS011;8614;48.522;9.206;2023-08-30T11:35:49;4.40;;;4.00;;
16994;SDS011;8614;48.522;9.206;2023-08-30T11:38:17;4.70;;;4.40;;
16994;SDS011;8614;48.522;9.206;2023-08-30T11:40:45;8.63;;;8.13;;
16994;SDS011;8614;48.522;9.206;2023-08-30T11:43:14;9.50;;;8.90;;
16994;SDS011;8614;48.522;9.206;2023-08-30T11:45:42;8.90;;;8.30;;
16994;SDS011;8614;48.522;9.206;2023-08-30T11:48:08;6.73;;;6.33;;
16994;SDS011;8614;48.522;9.206;2023-08-30T11:50:41;5.67;;;5.30;;
16994;SDS011;8614;48.522;9.206;2023-08-30T11:53:12;8.33;;;7.83;;
16994;SDS011;8614;48.522;9.206;2023-08-30T11:55:39;7.10;;;6.60;;
16994;SDS011;8614;48.522;9.206;2023-08-30T11:58:08;5.57;;;5.17;;
16994;SDS011;8614;48.522;9.206;2023-08-30T12:00:35;4.33;;;3.27;;
16994;SDS011;8614;48.522;9.206;2023-08-30T12:03:03;5.47;;;4.30;;
16994;SDS011;8614;48.522;9.206;2023-08-30T12:05:31;6.60;;;6.20;;
16994;SDS011;8614;48.522;9.206;2023-08-30T12:08:01;6.50;;;6.10;;
16994;SDS011;8614;48.522;9.206;2023-08-30T12:10:29;6.10;;;5.70;;
16994;SDS011;8614;48.522;9.206;2023-08-30T12:12:57;8.13;;;7.53;;
16994;SDS011;8614;48.522;9.206;2023-08-30T12:15:24;9.60;;;9.00;;
16994;SDS011;8614;48.522;9.206;2023-08-30T12:17:53;8.37;;;7.77;;
16994;SDS011;8614;48.522;9.206;2023-08-30T12:20:20;8.60;;;8.10;;
16994;SDS011;8614;48.522;9.206;2023-08-30T12:22:48;8.73;;;8.03;;
16994;SDS011;8614;48.522;9.206;2023-08-30T12:25:18;8.07;;;7.57;;
16994;SDS011;8614;48.522;9.206;2023-08-30T12:27:46;8.37;;;7.77;;
16994;SDS011;8614;48.522;9.206;2023-08-30T12:30:13;9.77;;;9.07;;
16994;SDS011;8614;48.522;9.206;2023-08-30T12:32:41;10.10;;;9.40;;
16994;SDS011;8614;48.522;9.206;2023-08-30T12:35:08;10.23;;;9.63;;
16994;SDS011;8614;48.522;9.206;2023-08-30T12:37:35;9.50;;;8.90;;
16994;SDS011;8614;48.522;9.206;2023-08-30T12:40:02;9.40;;;8.80;;
16994;SDS011;8614;48.522;9.206;2023-08-30T12:42:32;9.13;;;8.57;;
16994;SDS011;8614;48.522;9.206;2023-08-30T12:44:59;7.70;;;7.30;;
16994;SDS011;8614;48.522;9.206;2023-08-30T12:47:26;8.63;;;8.13;;
16994;SDS011;8614;48.522;9.206;2023-08-30T12:49:53;7.60;;;7.10;;
16994;SDS011;8614;48.522;9.206;2023-08-30T12:52:20;7.07;;;6.57;;
16994;SDS011;8614;48.522;9.206;2023-08-30T12:54:47;7.47;;;7.07;;
16994;SDS011;8614;48.522;9.206;2023-08-30T12:57:14;3.33;;;3.13;;
16994;SDS011;8614;48.522;9.206;2023-08-30T12:59:42;3.00;;;2.80;;
16994;SDS011;8614;48.522;9.206;2023-08-30T13:02:09;3.03;;;2.93;;
16994;SDS011;8614;48.522;9.206;2023-08-30T13:04:35;4.50;;;4.27;;
16994;SDS011;8614;48.522;9.206;2023-08-30T13:07:03;9.20;;;8.60;;
16994;SDS011;8614;48.522;9.206;2023-08-30T13:09:31;7.87;;;7.37;;
16994;SDS011;8614;48.522;9.206;2023-08-30T13:11:57;7.07;;;6.67;;
16994;SDS011;8614;48.522;9.206;2023-08-30T13:14:24;7.20;;;6.80;;
16994;SDS011;8614;48.522;9.206;2023-08-30T13:16:52;5.43;;;5.13;;
16994;SDS011;8614;48.522;9.206;2023-08-30T13:19:19;9.87;;;9.27;;
16994;SDS011;8614;48.522;9.206;2023-08-30T13:21:46;9.40;;;8.80;;
16994;SDS011;8614;48.522;9.206;2023-08-30T13:24:13;9.90;;;9.30;;
16994;SDS011;8614;48.522;9.206;2023-08-30T13:26:41;9.93;;;9.33;;
16994;SDS011;8614;48.522;9.206;2023-08-30T13:29:08;10.17;;;9.57;;
16994;SDS011;8614;48.522;9.206;2023-08-30T13:31:35;9.53;;;8.93;;
16994;SDS011;8614;48.522;9.206;2023-08-30T13:34:03;10.00;;;9.40;;
16994;SDS011;8614;48.522;9.206;2023-08-30T13:36:30;9.87;;;9.27;;
16994;SDS011;8614;48.522;9.206;2023-08-30T13:38:57;9.80;;;9.20;;
16994;SDS011;8614;48.522;9.206;2023-08-30T13:41:24;10.23;;;9.63;;
16994;SDS011;8614;48.522;9.206;2023-08-30T13:43:51;9.23;;;8.63;;
16994;SDS011;8614;48.522;9.206;2023-08-30T13:46:17;9.00;;;8.40;;
16994;SDS011;8614;48.522;9.206;2023-08-30T13:48:45;9.37;;;8.73;;
16994;SDS011;8614;48.522;9.206;2023-08-30T13:51:14;10.00;;;9.40;;
16994;SDS011;8614;48.522;9.206;2023-08-30T13:53:40;10.87;;;10.17;;
16994;SDS011;8614;48.522;9.206;2023-08-30T13:56:07;10.77;;;9.97;;
16994;SDS011;8614;48.522;9.206;2023-08-30T13:58:34;10.07;;;9.47;;
16994;SDS011;8614;48.522;9.206;2023-08-30T14:01:02;9.63;;;8.90;;
16994;SDS011;8614;48.522;9.206;2023-08-30T14:03:29;3.10;;;2.90;;
16994;SDS011;8614;48.522;9.206;2023-08-30T14:05:55;3.73;;;3.43;;
16994;SDS011;8614;48.522;9.206;2023-08-30T14:08:24;11.17;;;10.40;;
16994;SDS011;8614;48.522;9.206;2023-08-30T14:10:51;3.17;;;2.97;;
16994;SDS011;8614;48.522;9.206;2023-08-30T14:13:17;3.50;;;3.10;;
16994;SDS011;8614;48.522;9.206;2023-08-30T14:15:44;3.70;;;3.20;;
16994;SDS011;8614;48.522;9.206;2023-08-30T14:18:11;3.13;;;2.93;;
16994;SDS011;8614;48.522;9.206;2023-08-30T14:20:38;3.23;;;3.00;;
16994;SDS011;8614;48.522;9.206;2023-08-30T14:23:05;3.33;;;3.10;;
16994;SDS011;8614;48.522;9.206;2023-08-30T14:25:33;7.37;;;6.97;;
16994;SDS011;8614;48.522;9.206;2023-08-30T14:28:00;3.23;;;3.00;;
16994;SDS011;8614;48.522;9.206;2023-08-30T14:30:27;4.17;;;3.87;;
16994;SDS011;8614;48.522;9.206;2023-08-30T14:32:54;7.37;;;6.97;;
16994;SDS011;8614;48.522;9.206;2023-08-30T14:35:21;9.20;;;8.60;;
16994;SDS011;8614;48.522;9.206;2023-08-30T14:37:49;3.20;;;3.00;;
16994;SDS011;8614;48.522;9.206;2023-08-30T14:40:16;3.17;;;2.97;;
16994;SDS011;8614;48.522;9.206;2023-08-30T14:42:47;9.63;;;9.10;;
16994;SDS011;8614;48.522;9.206;2023-08-30T14:45:14;9.10;;;8.60;;
16994;SDS011;8614;48.522;9.206;2023-08-30T14:47:42;9.50;;;9.00;;
16994;SDS011;8614;48.522;9.206;2023-08-30T14:50:12;9.27;;;8.77;;